Time;durP1;ratioP1;P1;durP2;ratioP2;P2;SDS_P1;SDS_P2;PMS_P1;PMS_P2;Temp;Humidity;BMP_temperature;BMP_pressure;BME280_temperature;BME280_humidity;BME280_pressure;Samples;Min_cycle;Max_cycle;Signal;HPM_P1;HPM_P2
2023/04/08 00:02:38;;;;;;;11.27;6.85;;;;;;;6.75;51.06;100992.84;10219173;29;20040;-81
2023/04/08 00:07:41;;;;;;;11.45;7.07;;;;;;;6.80;51.08;100993.44;10221817;29;20114;-80
2023/04/08 00:12:44;;;;;;;8.63;6.60;;;;;;;6.82;51.54;100983.50;10224285;29;20044;-80
2023/04/08 00:17:48;;;;;;;9.80;6.65;;;;;;;6.86;51.78;100992.25;10224322;29;20550;-81
2023/04/08 00:22:51;;;;;;;11.30;6.88;;;;;;;6.88;51.83;100995.69;10222180;29;20055;-80
2023/04/08 00:27:54;;;;;;;13.20;6.95;;;;;;;6.87;52.15;100993.09;10205956;29;20118;-78
2023/04/08 00:32:58;;;;;;;9.38;6.65;;;;;;;6.88;52.50;101002.84;10212091;29;20052;-80
2023/04/08 00:38:02;;;;;;;10.00;6.53;;;;;;;6.84;52.60;100994.97;10214710;29;20511;-79
2023/04/08 00:43:04;;;;;;;13.95;6.65;;;;;;;6.88;52.58;101001.03;10217865;29;20047;-81
2023/04/08 00:48:09;;;;;;;8.63;6.32;;;;;;;6.92;52.64;101001.75;10218315;29;20078;-81
2023/04/08 00:53:12;;;;;;;10.23;6.80;;;;;;;6.97;52.78;100997.00;10219698;29;20047;-81
2023/04/08 00:58:16;;;;;;;7.75;6.35;;;;;;;6.81;53.29;100994.28;10219002;29;20040;-79
2023/04/08 01:03:30;;;;;;;10.23;6.20;;;;;;;6.90;53.54;101004.50;10212372;29;20488;-79
2023/04/08 01:08:37;;;;;;;9.48;6.22;;;;;;;6.99;53.08;101000.44;10215830;29;20053;-78
2023/04/08 01:13:42;;;;;;;8.48;6.65;;;;;;;6.95;53.67;100997.09;10216404;29;20051;-79
2023/04/08 01:18:48;;;;;;;8.65;6.22;;;;;;;6.89;54.59;100999.25;10212705;29;20459;-80
2023/04/08 01:24:00;;;;;;;10.30;6.82;;;;;;;6.92;55.23;100994.59;10211456;29;20148;-80
2023/04/08 01:29:06;;;;;;;8.65;5.97;;;;;;;7.03;55.20;100999.31;10244629;29;20043;-79
2023/04/08 01:34:10;;;;;;;13.95;6.03;;;;;;;7.06;54.95;100994.66;10215591;29;20055;-79
2023/04/08 01:39:16;;;;;;;10.00;6.00;;;;;;;7.05;54.63;101005.47;10218074;29;20047;-79
2023/04/08 01:44:23;;;;;;;8.63;6.05;;;;;;;6.93;55.46;101008.81;10226447;29;20039;-79
2023/04/08 01:49:26;;;;;;;6.68;5.57;;;;;;;6.83;55.68;101008.44;10225565;29;20039;-81
2023/04/08 01:54:29;;;;;;;9.82;5.70;;;;;;;6.78;56.58;100999.81;10228660;29;20044;-79
2023/04/08 01:59:36;;;;;;;7.97;5.97;;;;;;;6.91;56.68;101002.66;10229340;29;20472;-79
2023/04/08 02:04:40;;;;;;;6.40;5.30;;;;;;;6.96;56.62;101001.47;10225715;29;20091;-78
2023/04/08 02:09:43;;;;;;;10.05;5.55;;;;;;;6.99;57.31;101004.00;10224417;29;20537;-81
2023/04/08 02:14:47;;;;;;;9.25;5.85;;;;;;;7.03;57.65;101004.66;10220096;29;20054;-78
2023/04/08 02:19:56;;;;;;;6.60;5.47;;;;;;;7.04;58.23;101004.56;10228610;29;20043;-78
2023/04/08 02:25:01;;;;;;;9.27;5.50;;;;;;;7.12;58.38;101004.13;10231636;29;20047;-81
2023/04/08 02:30:08;;;;;;;10.60;6.53;;;;;;;7.11;58.77;101010.44;10228700;29;20075;-81
2023/04/08 02:35:12;;;;;;;8.20;6.25;;;;;;;7.11;59.46;101018.47;10218678;29;20238;-78
2023/04/08 02:40:26;;;;;;;9.82;6.00;;;;;;;7.09;59.86;101027.50;10278299;23;20074;-76
2023/04/08 02:45:32;;;;;;;10.07;6.35;;;;;;;7.10;60.44;101022.06;10329572;28;20406;-76
2023/04/08 02:50:35;;;;;;;11.05;7.50;;;;;;;7.10;60.92;101032.75;10272371;28;20409;-76
2023/04/08 02:55:38;;;;;;;11.68;7.40;;;;;;;7.10;61.34;101031.88;10265609;28;20490;-76
2023/04/08 03:00:43;;;;;;;8.45;6.88;;;;;;;7.07;61.85;101038.25;10241384;28;20043;-76
2023/04/08 03:05:46;;;;;;;9.80;7.40;;;;;;;7.14;62.25;101028.97;10238772;28;20135;-76
2023/04/08 03:10:48;;;;;;;10.98;7.90;;;;;;;7.11;62.57;101030.97;10243634;28;20052;-76
2023/04/08 03:15:53;;;;;;;11.65;8.13;;;;;;;7.15;62.56;101036.03;10247164;28;20526;-76
2023/04/08 03:20:56;;;;;;;11.63;8.20;;;;;;;7.10;62.74;101032.75;10244542;28;20055;-75
2023/04/08 03:25:58;;;;;;;11.57;8.13;;;;;;;7.10;62.98;101027.41;10235307;28;20059;-76
2023/04/08 03:31:04;;;;;;;12.27;8.30;;;;;;;7.10;63.65;101030.06;10257345;28;20538;-76
2023/04/08 03:36:08;;;;;;;11.98;8.80;;;;;;;7.11;64.68;101039.84;10237169;28;20487;-76
2023/04/08 03:41:11;;;;;;;12.25;8.25;;;;;;;7.06;65.52;101052.59;10237809;28;20043;-76
2023/04/08 03:46:15;;;;;;;15.73;9.05;;;;;;;6.96;65.76;101040.69;10236261;28;20048;-76
2023/04/08 03:51:18;;;;;;;15.50;10.23;;;;;;;6.89;65.66;101039.31;10239670;28;20054;-76
2023/04/08 03:56:21;;;;;;;15.13;10.30;;;;;;;6.93;65.41;101052.38;10242901;28;20055;-76
2023/04/08 04:01:25;;;;;;;17.15;11.55;;;;;;;6.94;64.83;101050.56;10232976;28;20046;-75
2023/04/08 04:06:28;;;;;;;15.27;10.93;;;;;;;6.95;64.85;101042.50;10245501;28;20379;-76
2023/04/08 04:11:31;;;;;;;18.05;11.35;;;;;;;6.89;64.45;101041.97;10226464;28;20098;-76
2023/04/08 04:16:35;;;;;;;14.68;9.90;;;;;;;6.74;64.77;101052.50;10243868;28;20040;-76
2023/04/08 04:21:38;;;;;;;18.50;11.38;;;;;;;6.76;64.77;101050.63;10237771;28;20051;-76
2023/04/08 04:26:41;;;;;;;16.95;11.25;;;;;;;6.74;65.05;101049.84;10236219;28;20221;-76
2023/04/08 04:31:45;;;;;;;16.30;11.05;;;;;;;6.76;64.80;101058.63;10238238;28;20498;-76
2023/04/08 04:36:48;;;;;;;14.02;9.80;;;;;;;6.88;64.88;101054.44;10226712;28;20470;-76
2023/04/08 04:41:51;;;;;;;12.88;8.40;;;;;;;6.90;64.93;101062.41;10247841;28;20525;-76
2023/04/08 04:46:57;;;;;;;14.45;9.10;;;;;;;6.90;65.12;101071.25;10277260;29;20059;-76
2023/04/08 04:51:59;;;;;;;12.60;8.27;;;;;;;6.87;65.40;101065.19;10284532;28;20095;-77
2023/04/08 04:57:02;;;;;;;13.77;8.73;;;;;;;6.82;65.50;101066.31;10247851;28;20048;-76
2023/04/08 05:02:06;;;;;;;12.50;8.82;;;;;;;6.71;65.13;101068.69;10242565;28;20047;-75
2023/04/08 05:07:09;;;;;;;12.27;8.02;;;;;;;6.74;65.01;101071.19;10232503;28;20053;-75
2023/04/08 05:12:12;;;;;;;9.85;7.72;;;;;;;6.72;64.94;101073.09;10233725;29;20063;-76
2023/04/08 05:17:16;;;;;;;14.90;8.50;;;;;;;6.76;64.90;101074.66;10247379;28;20092;-76
2023/04/08 05:22:19;;;;;;;15.68;8.32;;;;;;;6.73;64.92;101084.66;10223162;28;20055;-76
2023/04/08 05:27:22;;;;;;;12.20;8.10;;;;;;;6.74;65.09;101099.72;10235825;28;20103;-76
2023/04/08 05:32:26;;;;;;;11.82;8.10;;;;;;;6.80;65.00;101091.34;10221993;28;20082;-76
2023/04/08 05:37:29;;;;;;;12.60;7.82;;;;;;;6.79;64.70;101103.84;10231254;28;20079;-76
2023/04/08 05:42:32;;;;;;;13.95;8.07;;;;;;;6.74;64.71;101105.91;10233491;28;20135;-76
2023/04/08 05:47:36;;;;;;;11.95;8.35;;;;;;;6.76;64.55;101104.03;10225075;28;20059;-76
2023/04/08 05:52:43;;;;;;;11.35;7.38;;;;;;;6.85;64.23;101100.00;10231628;28;20040;-76
2023/04/08 05:57:46;;;;;;;13.10;6.25;;;;;;;7.00;65.17;101104.53;10223497;28;20040;-76
2023/04/08 06:02:50;;;;;;;10.18;5.57;;;;;;;7.38;64.92;101122.94;10223803;29;20134;-76
2023/04/08 06:07:53;;;;;;;9.38;5.25;;;;;;;7.77;63.79;101128.78;10232151;28;20079;-76
2023/04/08 06:12:56;;;;;;;6.57;5.32;;;;;;;7.67;62.54;101131.13;10227032;28;20435;-76
2023/04/08 06:18:00;;;;;;;12.07;7.35;;;;;;;7.73;62.25;101137.00;10227018;28;20043;-76
2023/04/08 06:23:03;;;;;;;9.07;7.03;;;;;;;7.48;62.42;101125.94;10237079;28;20490;-76
2023/04/08 06:28:06;;;;;;;10.82;7.95;;;;;;;7.67;62.60;101145.34;10235145;28;20071;-76
2023/04/08 06:33:10;;;;;;;11.90;8.55;;;;;;;7.88;63.00;101158.47;10251766;28;20047;-75
2023/04/08 06:38:13;;;;;;;13.73;8.73;;;;;;;7.79;62.59;101161.63;10255685;28;20494;-76
2023/04/08 06:43:16;;;;;;;13.50;8.85;;;;;;;7.80;63.26;101168.75;10227736;28;20110;-77
2023/04/08 06:48:22;;;;;;;9.38;6.70;;;;;;;7.66;63.83;101178.41;10253945;28;20593;-77
2023/04/08 06:53:25;;;;;;;12.43;9.13;;;;;;;7.66;63.13;101181.06;10232702;29;20086;-76
2023/04/08 06:58:29;;;;;;;12.93;8.90;;;;;;;7.64;62.89;101179.44;10237215;28;20194;-76
2023/04/08 07:03:33;;;;;;;9.52;7.20;;;;;;;7.83;62.91;101182.78;10239055;29;20090;-76
2023/04/08 07:08:37;;;;;;;9.48;6.85;;;;;;;7.99;61.91;101193.47;10225428;28;20561;-75
2023/04/08 07:13:40;;;;;;;11.82;8.15;;;;;;;8.06;62.13;101194.84;10238633;29;20152;-75
2023/04/08 07:18:44;;;;;;;15.70;9.38;;;;;;;7.99;61.83;101196.16;10232460;29;20479;-76
2023/04/08 07:23:47;;;;;;;14.48;9.38;;;;;;;8.24;61.71;101192.06;10233250;29;20130;-76
2023/04/08 07:28:50;;;;;;;16.35;10.38;;;;;;;8.39;61.22;101207.22;10235631;28;20075;-76
2023/04/08 07:33:55;;;;;;;19.00;13.10;;;;;;;8.09;61.82;101204.50;10232860;28;20051;-76
2023/04/08 07:38:57;;;;;;;16.23;9.93;;;;;;;8.22;62.08;101210.88;10230890;29;20107;-75
2023/04/08 07:44:00;;;;;;;15.93;10.57;;;;;;;8.33;61.67;101218.28;10236030;29;20160;-76
2023/04/08 07:49:04;;;;;;;20.77;11.82;;;;;;;8.21;61.82;101219.88;10233795;28;20074;-76
2023/04/08 07:54:09;;;;;;;21.40;12.13;;;;;;;8.05;62.91;101217.22;10231677;29;20166;-76
2023/04/08 07:59:12;;;;;;;20.35;11.65;;;;;;;8.03;63.26;101224.44;10236934;28;20154;-76
2023/04/08 08:04:16;;;;;;;25.42;11.95;;;;;;;8.02;63.44;101236.13;10238689;28;20052;-76
2023/04/08 08:09:19;;;;;;;23.85;12.52;;;;;;;8.34;63.28;101228.91;10234457;28;20054;-76
2023/04/08 08:14:22;;;;;;;20.95;12.18;;;;;;;8.56;62.83;101230.38;10235086;29;20455;-76
2023/04/08 08:19:26;;;;;;;19.88;11.85;;;;;;;8.75;62.19;101230.09;10241588;28;20069;-76
2023/04/08 08:24:29;;;;;;;20.77;12.40;;;;;;;9.14;61.84;101234.03;10241962;29;20082;-76
2023/04/08 08:29:32;;;;;;;24.52;13.32;;;;;;;9.44;60.24;101236.63;10223583;29;20063;-76
2023/04/08 08:34:37;;;;;;;22.17;12.88;;;;;;;9.83;60.00;101235.03;10241698;28;20056;-76
2023/04/08 08:39:39;;;;;;;19.95;12.00;;;;;;;9.84;58.70;101239.44;10231463;28;20047;-76
2023/04/08 08:44:42;;;;;;;22.15;12.70;;;;;;;9.49;59.53;101246.09;10224683;29;20043;-76
2023/04/08 08:49:47;;;;;;;23.38;14.00;;;;;;;9.80;59.51;101243.28;10232042;28;20434;-75
2023/04/08 08:54:58;;;;;;;24.75;13.65;;;;;;;10.48;58.05;101242.44;10231851;29;20110;-77
2023/04/08 09:00:00;;;;;;;23.13;13.70;;;;;;;11.19;55.66;101247.44;10227444;28;20047;-76
2023/04/08 09:05:05;;;;;;;24.10;15.95;;;;;;;10.84;55.64;101247.16;10230084;29;20055;-76
2023/04/08 09:10:09;;;;;;;24.77;13.57;;;;;;;10.66;56.52;101259.13;10233670;28;20079;-76
2023/04/08 09:15:12;;;;;;;22.77;13.55;;;;;;;10.39;57.09;101260.91;10229186;29;20073;-76
2023/04/08 09:20:17;;;;;;;23.98;14.63;;;;;;;10.60;57.48;101258.59;10235797;28;20043;-75
2023/04/08 09:25:24;;;;;;;25.00;14.55;;;;;;;11.33;55.91;101254.53;10221882;29;20131;-76
2023/04/08 09:30:27;;;;;;;22.02;13.40;;;;;;;11.68;54.56;101257.41;10234235;28;20095;-76
2023/04/08 09:35:32;;;;;;;22.67;13.52;;;;;;;12.55;52.89;101252.78;10231297;29;20479;-76
2023/04/08 09:40:35;;;;;;;22.10;13.68;;;;;;;12.50;52.12;101263.03;10243126;28;20040;-76
2023/04/08 09:45:41;;;;;;;22.90;13.98;;;;;;;12.60;52.21;101257.84;10232539;28;20079;-75
2023/04/08 09:50:50;;;;;;;24.33;14.02;;;;;;;12.42;52.38;101264.59;10220343;28;20059;-75
2023/04/08 09:55:56;;;;;;;25.85;14.45;;;;;;;11.93;53.41;101286.09;10232626;29;20134;-76
2023/04/08 10:01:00;;;;;;;25.95;13.73;;;;;;;11.40;54.64;101284.53;10235008;28;20064;-76
2023/04/08 10:06:07;;;;;;;23.98;13.40;;;;;;;10.98;55.89;101294.59;10231206;29;20116;-75
2023/04/08 10:11:10;;;;;;;23.83;13.50;;;;;;;10.74;56.88;101297.97;10253650;28;20483;-75
2023/04/08 10:16:20;;;;;;;23.48;14.18;;;;;;;10.79;56.96;101301.19;10260102;28;20055;-76
2023/04/08 10:21:42;;;;;;;27.02;14.60;;;;;;;10.37;57.62;101307.63;10253772;28;20106;-76
2023/04/08 10:26:47;;;;;;;23.70;14.20;;;;;;;10.15;58.62;101298.28;10257006;28;20069;-76
2023/04/08 10:31:51;;;;;;;22.70;14.18;;;;;;;10.21;58.49;101302.38;10241910;28;20051;-76
2023/04/08 10:36:58;;;;;;;26.83;15.25;;;;;;;10.20;58.91;101315.91;10232403;28;20059;-76
2023/04/08 10:42:03;;;;;;;26.38;15.05;;;;;;;10.20;58.91;101307.84;10243303;28;20039;-76
2023/04/08 10:47:06;;;;;;;26.63;15.18;;;;;;;10.33;59.13;101296.19;10228225;29;20044;-76
2023/04/08 10:52:10;;;;;;;26.25;16.20;;;;;;;10.21;58.86;101305.06;10242482;28;20527;-76
2023/04/08 10:57:13;;;;;;;25.00;15.02;;;;;;;10.27;59.41;101307.34;10237469;28;20048;-76
2023/04/08 11:02:16;;;;;;;25.83;14.55;;;;;;;10.64;58.32;101302.25;10236341;28;20050;-76
2023/04/08 11:07:21;;;;;;;25.58;15.48;;;;;;;10.43;58.50;101306.34;10254407;28;20419;-76
2023/04/08 11:12:26;;;;;;;28.60;16.08;;;;;;;10.69;58.34;101300.09;10227153;28;20495;-76
2023/04/08 11:17:30;;;;;;;28.00;17.35;;;;;;;11.04;57.82;101307.59;10232894;29;20116;-76
2023/04/08 11:22:34;;;;;;;27.83;15.20;;;;;;;10.88;57.26;101312.28;10232168;28;20039;-76
2023/04/08 11:27:38;;;;;;;27.65;15.18;;;;;;;10.72;57.88;101315.16;10226350;28;20047;-75
2023/04/08 11:32:41;;;;;;;29.38;16.67;;;;;;;10.87;58.30;101307.91;10236442;28;20099;-76
2023/04/08 11:37:46;;;;;;;29.55;16.67;;;;;;;10.98;57.84;101303.50;10234592;28;20467;-76
2023/04/08 11:42:50;;;;;;;29.63;16.70;;;;;;;11.10;57.98;101300.94;10246720;28;20075;-75
2023/04/08 11:47:53;;;;;;;28.92;16.98;;;;;;;11.67;56.82;101297.88;10232242;28;20054;-75
2023/04/08 11:52:57;;;;;;;30.40;16.67;;;;;;;12.30;55.04;101293.34;10239361;28;20053;-76
2023/04/08 11:58:03;;;;;;;27.27;16.92;;;;;;;12.21;54.10;101292.16;10246133;28;20077;-76
2023/04/08 12:03:06;;;;;;;28.33;16.75;;;;;;;12.22;54.84;101284.91;10248334;29;20035;-76
2023/04/08 12:08:10;;;;;;;27.52;15.68;;;;;;;12.54;54.14;101294.19;10252795;28;20550;-76
2023/04/08 12:13:13;;;;;;;26.05;15.82;;;;;;;12.57;53.74;101303.91;10238794;28;20051;-76
2023/04/08 12:18:16;;;;;;;26.73;16.08;;;;;;;12.23;54.09;101303.69;10238316;28;20048;-76
2023/04/08 12:23:20;;;;;;;25.50;15.85;;;;;;;12.12;54.94;101303.59;10225049;28;20027;-75
2023/04/08 12:28:23;;;;;;;23.45;16.35;;;;;;;12.19;54.71;101312.94;10236779;28;20504;-75
2023/04/08 12:33:26;;;;;;;25.83;15.60;;;;;;;12.17;54.92;101304.97;10226166;29;20036;-76
2023/04/08 12:38:30;;;;;;;24.60;15.60;;;;;;;12.13;54.23;101303.47;10231983;28;20616;-75
2023/04/08 12:43:33;;;;;;;25.42;14.95;;;;;;;11.87;55.32;101312.56;10234697;29;20118;-75
2023/04/08 12:48:36;;;;;;;26.20;16.38;;;;;;;11.64;56.01;101304.31;10232217;28;20384;-75
2023/04/08 12:53:41;;;;;;;26.88;16.02;;;;;;;11.39;57.01;101315.97;10232721;28;20071;-75
2023/04/08 12:58:44;;;;;;;23.25;14.25;;;;;;;11.35;56.90;101319.81;10225244;28;20509;-76
2023/04/08 13:03:47;;;;;;;25.75;15.32;;;;;;;11.18;57.44;101320.97;10244912;28;20058;-76
2023/04/08 13:08:52;;;;;;;26.40;15.10;;;;;;;11.14;58.17;101322.19;10233886;28;20042;-76
2023/04/08 13:13:55;;;;;;;27.15;15.77;;;;;;;11.43;57.66;101316.59;10233877;29;20047;-76
2023/04/08 13:18:57;;;;;;;25.98;14.93;;;;;;;11.48;57.10;101325.22;10223266;28;20047;-76
2023/04/08 13:24:02;;;;;;;26.40;15.95;;;;;;;11.26;57.72;101324.00;10236466;28;20051;-75
2023/04/08 13:29:05;;;;;;;28.33;16.05;;;;;;;11.10;58.09;101319.75;10224031;28;20459;-75
2023/04/08 13:34:08;;;;;;;26.02;15.48;;;;;;;10.97;58.68;101314.34;10228726;28;20554;-75
2023/04/08 13:39:12;;;;;;;28.77;15.82;;;;;;;10.90;58.68;101316.59;10234522;28;20131;-75
2023/04/08 13:44:15;;;;;;;22.90;14.40;;;;;;;10.92;58.81;101313.81;10221770;29;20134;-75
2023/04/08 13:49:19;;;;;;;26.60;16.17;;;;;;;10.88;59.08;101312.28;10236892;28;20047;-76
2023/04/08 13:54:23;;;;;;;34.60;19.40;;;;;;;11.17;58.50;101315.72;10226161;29;20087;-76
2023/04/08 13:59:26;;;;;;;24.95;15.02;;;;;;;11.61;57.55;101292.94;10228449;28;20123;-76
2023/04/08 14:04:29;;;;;;;26.83;15.35;;;;;;;11.91;56.95;101295.25;10233507;29;20055;-75
2023/04/08 14:09:34;;;;;;;24.50;14.90;;;;;;;12.01;56.67;101301.66;10223524;29;20434;-74
2023/04/08 14:14:37;;;;;;;22.23;13.48;;;;;;;11.93;56.06;101296.84;10225329;29;20044;-75
2023/04/08 14:19:40;;;;;;;21.92;14.43;;;;;;;11.91;56.26;101301.50;10237930;28;20411;-77
2023/04/08 14:24:44;;;;;;;23.35;14.65;;;;;;;11.48;56.96;101303.69;10232223;28;20127;-76
2023/04/08 14:29:47;;;;;;;24.52;15.13;;;;;;;11.37;57.69;101308.97;10228205;29;20495;-75
2023/04/08 14:34:50;;;;;;;24.75;15.68;;;;;;;11.32;57.62;101306.56;10231785;28;20052;-76
2023/04/08 14:39:55;;;;;;;26.52;16.55;;;;;;;11.24;58.50;101307.13;10235802;23;20099;-80
2023/04/08 14:44:58;;;;;;;28.83;15.38;;;;;;;11.19;58.33;101308.41;10253322;29;20062;-78
2023/04/08 14:50:01;;;;;;;26.38;15.98;;;;;;;10.97;58.83;101312.56;10246462;29;20048;-82
2023/04/08 14:55:06;;;;;;;24.92;15.75;;;;;;;10.81;59.41;101315.41;10248311;29;20039;-80
2023/04/08 15:00:09;;;;;;;24.80;15.32;;;;;;;10.73;60.14;101307.00;10254820;29;20031;-81
2023/04/08 15:05:12;;;;;;;22.38;15.35;;;;;;;10.82;60.14;101310.88;10250671;29;20051;-84
2023/04/08 15:10:16;;;;;;;24.42;14.93;;;;;;;10.72;59.95;101302.56;10255686;29;20039;-81
2023/04/08 15:15:19;;;;;;;24.88;16.40;;;;;;;10.77;60.51;101313.03;10250870;29;20426;-82
2023/04/08 15:20:22;;;;;;;27.80;16.98;;;;;;;10.91;60.27;101314.78;10258212;29;20054;-79
2023/04/08 15:25:26;;;;;;;27.92;16.70;;;;;;;11.22;59.60;101308.22;10255260;29;20105;-82
2023/04/08 15:30:33;;;;;;;27.65;16.52;;;;;;;11.72;57.84;101304.63;10252898;29;20055;-82
2023/04/08 15:35:38;;;;;;;26.55;16.15;;;;;;;11.66;57.49;101306.91;10252880;29;20410;-82
2023/04/08 15:40:43;;;;;;;25.17;15.43;;;;;;;11.63;58.24;101304.44;10253140;29;20525;-81
2023/04/08 15:45:49;;;;;;;26.40;15.82;;;;;;;11.47;58.03;101313.59;10262372;29;20077;-82
2023/04/08 15:50:52;;;;;;;26.00;16.80;;;;;;;11.24;59.29;101319.69;10254023;29;20098;-82
2023/04/08 15:55:56;;;;;;;25.08;15.65;;;;;;;11.33;59.32;101319.09;10248940;28;20066;-81
2023/04/08 16:00:59;;;;;;;25.60;15.90;;;;;;;11.08;59.63;101325.25;10245804;28;20048;-80
2023/04/08 16:06:02;;;;;;;27.30;17.65;;;;;;;10.78;60.30;101322.81;10253883;28;20447;-81
2023/04/08 16:11:06;;;;;;;25.85;16.67;;;;;;;10.55;61.18;101317.13;10252149;29;20043;-83
2023/04/08 16:16:11;;;;;;;29.20;17.67;;;;;;;10.55;61.31;101325.19;10237276;29;20043;-80
2023/04/08 16:21:14;;;;;;;25.13;16.40;;;;;;;10.57;61.38;101325.09;10242785;29;20380;-81
2023/04/08 16:26:18;;;;;;;27.58;17.10;;;;;;;10.35;61.96;101331.88;10231912;29;20039;-80
2023/04/08 16:31:21;;;;;;;30.77;17.73;;;;;;;10.10;62.65;101334.44;10251021;29;20044;-81
2023/04/08 16:36:24;;;;;;;32.20;18.45;;;;;;;10.07;63.18;101338.19;10241428;29;20107;-81
2023/04/08 16:41:28;;;;;;;23.42;15.88;;;;;;;10.03;62.97;101343.81;10240421;29;20060;-83
2023/04/08 16:46:31;;;;;;;24.13;14.88;;;;;;;9.93;63.20;101346.25;10244121;29;20042;-83
2023/04/08 16:51:34;;;;;;;28.13;17.00;;;;;;;9.76;63.54;101363.34;10240507;29;20046;-81
2023/04/08 16:56:43;;;;;;;26.55;16.00;;;;;;;9.71;63.74;101358.28;10240884;28;20039;-83
2023/04/08 17:01:46;;;;;;;29.25;17.10;;;;;;;9.74;63.78;101349.19;10236028;29;20503;-81
2023/04/08 17:06:49;;;;;;;28.45;17.73;;;;;;;9.67;63.87;101361.25;10250079;29;20050;-81
2023/04/08 17:11:54;;;;;;;33.55;17.40;;;;;;;9.49;64.37;101369.47;10240108;28;20618;-83
2023/04/08 17:16:57;;;;;;;27.73;16.30;;;;;;;9.53;63.96;101367.47;10242442;29;20498;-83
2023/04/08 17:22:00;;;;;;;26.83;15.93;;;;;;;9.48;63.85;101374.91;10238216;29;20059;-83
2023/04/08 17:27:04;;;;;;;35.38;19.27;;;;;;;9.54;63.92;101371.00;10248983;29;20118;-83
2023/04/08 17:32:07;;;;;;;42.22;24.50;;;;;;;9.42;64.36;101368.13;10243677;29;20050;-83
2023/04/08 17:37:10;;;;;;;42.40;26.00;;;;;;;9.43;64.37;101375.19;10244632;29;20057;-82
2023/04/08 17:42:15;;;;;;;47.28;26.95;;;;;;;9.32;64.93;101372.28;10249587;28;20063;-81
2023/04/08 17:47:19;;;;;;;50.20;25.17;;;;;;;9.25;64.99;101373.63;10272619;28;20039;-78
2023/04/08 17:52:22;;;;;;;44.53;25.52;;;;;;;9.25;65.37;101374.50;10270856;29;20071;-83
2023/04/08 17:57:27;;;;;;;42.15;24.52;;;;;;;9.16;65.53;101375.06;10241765;29;20078;-81
2023/04/08 18:02:30;;;;;;;42.53;24.55;;;;;;;9.15;65.75;101376.00;10240377;29;20036;-82
2023/04/08 18:07:33;;;;;;;41.63;23.27;;;;;;;9.11;65.97;101382.50;10243621;29;20118;-83
2023/04/08 18:12:37;;;;;;;44.15;25.20;;;;;;;9.08;66.09;101377.31;10249448;29;20074;-83
2023/04/08 18:17:40;;;;;;;42.88;25.67;;;;;;;9.05;65.82;101394.44;10244682;29;20074;-83
2023/04/08 18:22:43;;;;;;;43.17;24.25;;;;;;;9.00;65.63;101401.91;10249692;29;20040;-79
2023/04/08 18:27:47;;;;;;;41.55;24.27;;;;;;;8.94;65.70;101410.31;10254251;29;20075;-82
2023/04/08 18:32:50;;;;;;;38.95;22.63;;;;;;;8.93;65.52;101410.38;10258084;29;20043;-80
2023/04/08 18:37:53;;;;;;;44.28;24.38;;;;;;;8.90;65.63;101415.91;10263318;29;20073;-79
2023/04/08 18:43:00;;;;;;;45.53;26.67;;;;;;;8.80;65.95;101420.91;10264949;28;20044;-79
2023/04/08 18:48:03;;;;;;;48.60;25.45;;;;;;;8.74;66.19;101426.63;10265268;29;20047;-79
2023/04/08 18:53:06;;;;;;;43.08;24.35;;;;;;;8.70;66.12;101425.97;10261996;28;20043;-79
2023/04/08 18:58:11;;;;;;;47.60;26.85;;;;;;;8.81;65.73;101442.28;10264019;29;20129;-79
2023/04/08 19:03:14;;;;;;;50.28;27.95;;;;;;;8.82;65.97;101440.47;10263819;28;20521;-79
2023/04/08 19:08:16;;;;;;;40.22;22.80;;;;;;;8.67;66.41;101458.28;10262261;29;20102;-78
2023/04/08 19:13:22;;;;;;;38.97;23.60;;;;;;;8.63;66.02;101451.34;10255023;29;20047;-79
2023/04/08 19:18:25;;;;;;;45.45;25.85;;;;;;;8.65;65.82;101445.91;10263518;29;20047;-82
2023/04/08 19:23:28;;;;;;;47.95;25.70;;;;;;;8.53;65.59;101455.47;10258063;29;20046;-80
2023/04/08 19:28:32;;;;;;;45.65;25.10;;;;;;;8.53;65.39;101466.19;10259512;29;20047;-80
2023/04/08 19:33:35;;;;;;;42.92;22.15;;;;;;;8.52;65.19;101462.66;10251696;28;20035;-80
2023/04/08 19:38:38;;;;;;;41.65;23.33;;;;;;;8.47;65.12;101470.06;10261381;29;20074;-80
2023/04/08 19:43:42;;;;;;;44.92;24.05;;;;;;;8.30;65.15;101470.97;10260028;29;20407;-84
2023/04/08 19:48:45;;;;;;;40.97;23.05;;;;;;;8.24;65.11;101467.78;10266151;28;20060;-82
2023/04/08 19:53:49;;;;;;;40.22;22.13;;;;;;;8.22;65.44;101472.34;10270534;29;20114;-80
2023/04/08 19:58:54;;;;;;;44.00;23.48;;;;;;;8.05;65.57;101470.56;10251779;29;20134;-79
2023/04/08 20:03:56;;;;;;;39.42;21.88;;;;;;;8.22;65.08;101461.63;10244180;29;20098;-78
2023/04/08 20:09:04;;;;;;;41.60;23.05;;;;;;;8.23;64.92;101461.56;10256646;29;20039;-80
2023/04/08 20:14:08;;;;;;;43.05;23.70;;;;;;;8.08;65.07;101471.25;10260073;29;20039;-79
2023/04/08 20:19:11;;;;;;;43.20;22.98;;;;;;;7.92;65.44;101465.84;10252786;29;20070;-79
2023/04/08 20:24:15;;;;;;;42.42;23.55;;;;;;;7.77;65.48;101469.34;10255479;29;20071;-79
2023/04/08 20:29:19;;;;;;;47.40;25.33;;;;;;;7.63;66.11;101471.88;10247567;29;20043;-82
2023/04/08 20:34:22;;;;;;;44.55;24.50;;;;;;;7.57;66.19;101475.75;10252879;29;20402;-82
2023/04/08 20:39:28;;;;;;;42.22;24.90;;;;;;;7.50;66.60;101479.66;10257234;29;20047;-84
2023/04/08 20:44:32;;;;;;;42.95;23.65;;;;;;;7.43;66.61;101473.75;10342459;23;20062;-79
2023/04/08 20:49:39;;;;;;;47.60;24.13;;;;;;;7.40;66.72;101475.69;10333243;28;20077;-79
2023/04/08 20:54:42;;;;;;;47.60;25.23;;;;;;;7.37;66.76;101471.38;10313485;28;20035;-79
2023/04/08 20:59:46;;;;;;;48.33;26.92;;;;;;;7.30;66.75;101475.31;10307618;28;20027;-79
2023/04/08 21:04:49;;;;;;;45.25;25.35;;;;;;;7.35;66.91;101477.75;10301472;28;20045;-79
2023/04/08 21:09:52;;;;;;;44.38;23.40;;;;;;;7.30;67.06;101472.66;10316937;28;20449;-79
2023/04/08 21:14:56;;;;;;;43.40;24.40;;;;;;;7.22;67.26;101470.34;10299334;28;20405;-78
2023/04/08 21:19:59;;;;;;;48.33;24.92;;;;;;;7.11;67.41;101470.03;10303065;28;20047;-79
2023/04/08 21:25:02;;;;;;;44.58;24.33;;;;;;;6.97;67.35;101480.53;10313544;28;20043;-79
2023/04/08 21:30:07;;;;;;;43.28;24.35;;;;;;;6.83;67.59;101483.81;10294209;28;20058;-79
2023/04/08 21:35:10;;;;;;;43.20;24.67;;;;;;;6.80;67.93;101482.16;10307995;28;20382;-79
2023/04/08 21:40:13;;;;;;;43.90;24.10;;;;;;;6.73;67.88;101483.38;10297723;28;20418;-79
2023/04/08 21:45:18;;;;;;;45.17;24.20;;;;;;;6.56;68.07;101486.84;10319998;28;20045;-78
2023/04/08 21:50:20;;;;;;;47.40;26.30;;;;;;;6.51;68.32;101486.19;10306743;28;20054;-78
2023/04/08 21:55:24;;;;;;;43.03;23.73;;;;;;;6.45;68.61;101478.50;10301139;28;20045;-78
2023/04/08 22:00:29;;;;;;;44.95;24.23;;;;;;;6.43;68.82;101487.50;10319501;28;20038;-78
2023/04/08 22:05:31;;;;;;;43.83;22.33;;;;;;;6.39;68.72;101484.13;10309418;28;20047;-79
2023/04/08 22:10:34;;;;;;;42.45;22.88;;;;;;;6.21;68.58;101479.59;10312859;28;20109;-79
2023/04/08 22:15:38;;;;;;;42.95;22.77;;;;;;;6.19;69.00;101477.00;10312524;28;20042;-80
2023/04/08 22:20:41;;;;;;;36.10;20.33;;;;;;;6.10;69.10;101474.75;10330590;28;20121;-78
2023/04/08 22:25:44;;;;;;;41.95;21.88;;;;;;;6.13;69.39;101479.94;10324756;28;20085;-80
2023/04/08 22:30:49;;;;;;;52.72;27.02;;;;;;;6.13;69.45;101472.81;10332887;28;20047;-80
2023/04/08 22:35:52;;;;;;;45.22;24.88;;;;;;;6.13;69.82;101472.81;10335359;28;20098;-79
2023/04/08 22:40:55;;;;;;;45.75;25.40;;;;;;;6.15;69.67;101470.94;10326585;28;20042;-79
2023/04/08 22:45:59;;;;;;;41.03;23.30;;;;;;;6.04;69.51;101475.03;10329640;28;20054;-79
2023/04/08 22:51:02;;;;;;;42.13;23.08;;;;;;;5.86;69.45;101466.91;10320295;28;20061;-80
2023/04/08 22:56:05;;;;;;;46.28;24.10;;;;;;;5.73;69.79;101471.03;10326162;28;20512;-78
2023/04/08 23:01:15;;;;;;;43.40;23.15;;;;;;;5.67;70.00;101472.16;10313795;28;20043;-80